SBOSBO BSL / LFSB
Speedbird OnlineSpeedbird Online BSL / LFSB

EuroAirport Basel-Mulhouse-Freiburg Airport
00:42 14.8°C

Location Mulhouse, France
Latitude: 47.59
Longitude: 7.5291667
Local Time 00:42 on 21 May 2024
UTC +2 hours (Europe/Paris)
Currency £1 equals EUR 1.17
METAR LFSB 202200Z AUTO 26016KT 220V290 9999 TSRA BKN036/// BKN042/// BKN064/// ///CB ///// Q1008 TEMPO 3000 SHRA BKN012 SCT030CB BECMG 36008KT
TAF TAF LFSB 201700Z 2018/2118 36008KT CAVOK TEMPO 2018/2020 FEW040CB PROB30 2018/2020 -SHRA TEMPO 2020/2101 3000 SHRA FEW040CB PROB40 TEMPO 2021/2023 28015G30KT 1200 TSRA BKN012 SCT030CB TEMPO 2104/2114 -RA BKN030
Weather As Of 21 May 2024 00:42
Description Thunderstorm with heavy rain
Wind 44 km/h from West (260°)
Cloud Cover 75%
Precipitation Rain: none, Snow: none
Sunrise 05:45
Sunset 21:07
NOTAM 22 active NOTAM
Rotations During the last 90 days there were
249 flights from LHR
252 flights to LHR
Lounges EuroAirport Skyview Lounge , Y Terminal
Web Airport Website | Wikipedia
Codes IATA: BSL
ICAO: LFSB
Altitude 270 Meter / 885 Feet
Distance 689 KM / 428 Miles
from London.
Runways
RunwayLength (m)Surface
071715Concrete
153900Concrete
251715Concrete
333900Concrete
Radio
TypeDescriptionFrequency
A/DAPP118.575
ATISATIS127.875
GNDGND121.6
INFOINFO121.25
PFLTPREFLIGHT120.5
TWRTWR118.3
Live ATC



Support Speedbird Online

© 2017-2024 Speedbird Online